Time;durP1;ratioP1;P1;durP2;ratioP2;P2;SDS_P1;SDS_P2;PMS_P1;PMS_P2;Temp;Humidity;BMP_temperature;BMP_pressure;BME280_temperature;BME280_humidity;BME280_pressure;Samples;Min_cycle;Max_cycle;Signal;HPM_P1;HPM_P2
2021/05/31 00:00:46;;;;;;;30.67;12.98;;;;;;;;;;5113102;28;20023;-64
2021/05/31 00:03:11;;;;;;;25.35;12.70;;;;;;;;;;5113507;28;20019;-64
2021/05/31 00:05:37;;;;;;;41.03;13.85;;;;;;;;;;5113016;28;20391;-64
2021/05/31 00:08:02;;;;;;;28.95;13.75;;;;;;;;;;5113421;28;20099;-64
2021/05/31 00:10:27;;;;;;;25.70;13.20;;;;;;;;;;5113153;28;20036;-64
2021/05/31 00:12:53;;;;;;;29.83;14.13;;;;;;;;;;5113312;28;20502;-64
2021/05/31 00:15:18;;;;;;;32.95;14.43;;;;;;;;;;5113126;28;20020;-64
2021/05/31 00:17:43;;;;;;;27.88;13.32;;;;;;;;;;5113387;28;20116;-64
2021/05/31 00:20:09;;;;;;;27.90;13.40;;;;;;;;;;5113104;28;20035;-64
2021/05/31 00:22:35;;;;;;;26.55;13.98;;;;;;;;;;5113262;28;20016;-64
2021/05/31 00:25:00;;;;;;;33.28;14.25;;;;;;;;;;5113195;28;20024;-64
2021/05/31 00:27:25;;;;;;;33.35;13.98;;;;;;;;;;5113077;28;20040;-64
2021/05/31 00:29:51;;;;;;;32.35;13.57;;;;;;;;;;5113050;28;20122;-64
2021/05/31 00:32:16;;;;;;;24.27;12.98;;;;;;;;;;5113202;28;20456;-64
2021/05/31 00:34:42;;;;;;;30.20;14.20;;;;;;;;;;5112822;28;20032;-64
2021/05/31 00:37:07;;;;;;;29.35;13.25;;;;;;;;;;5113374;28;20031;-64
2021/05/31 00:39:33;;;;;;;36.67;15.00;;;;;;;;;;5112994;28;20490;-64
2021/05/31 00:41:59;;;;;;;26.58;13.77;;;;;;;;;;5112963;28;20111;-64
2021/05/31 00:44:24;;;;;;;28.33;13.95;;;;;;;;;;5115561;28;20027;-65
2021/05/31 00:46:50;;;;;;;35.92;13.73;;;;;;;;;;5116828;28;20035;-64
2021/05/31 00:49:20;;;;;;;31.25;13.77;;;;;;;;;;5116499;28;20032;-64
2021/05/31 00:51:45;;;;;;;31.55;13.70;;;;;;;;;;5116377;28;20033;-64
2021/05/31 00:54:11;;;;;;;31.17;14.65;;;;;;;;;;5116761;28;20035;-64
2021/05/31 00:56:37;;;;;;;34.45;15.07;;;;;;;;;;5116421;28;20108;-64
2021/05/31 00:59:02;;;;;;;34.13;14.27;;;;;;;;;;5116609;28;20068;-64
2021/05/31 01:01:28;;;;;;;26.98;13.80;;;;;;;;;;5116439;28;20481;-64
2021/05/31 01:03:53;;;;;;;35.75;13.98;;;;;;;;;;5116438;28;20042;-64
2021/05/31 01:06:22;;;;;;;36.75;13.85;;;;;;;;;;5116332;28;20016;-64
2021/05/31 01:09:06;;;;;;;33.05;13.95;;;;;;;;;;5114981;28;20069;-64
2021/05/31 01:11:37;;;;;;;32.42;13.50;;;;;;;;;;5095625;28;20044;-64
2021/05/31 01:14:13;;;;;;;28.17;13.98;;;;;;;;;;5095893;28;20016;-64
2021/05/31 01:17:04;;;;;;;29.08;13.73;;;;;;;;;;5095622;28;20033;-64
2021/05/31 01:19:35;;;;;;;29.67;12.50;;;;;;;;;;5061086;28;20078;-64
2021/05/31 01:22:20;;;;;;;24.15;12.60;;;;;;;;;;5095986;28;20483;-64
2021/05/31 01:24:57;;;;;;;26.52;12.55;;;;;;;;;;5095259;28;20384;-64
2021/05/31 01:27:32;;;;;;;29.63;13.70;;;;;;;;;;5093200;28;20393;-64
2021/05/31 01:30:05;;;;;;;40.50;15.23;;;;;;;;;;5093971;28;20024;-64
2021/05/31 01:32:37;;;;;;;33.47;14.35;;;;;;;;;;5095172;28;20036;-64
2021/05/31 01:35:07;;;;;;;30.10;13.35;;;;;;;;;;5094816;28;20149;-64
2021/05/31 01:37:33;;;;;;;30.45;13.27;;;;;;;;;;5094977;28;20537;-64
2021/05/31 01:40:01;;;;;;;37.35;13.30;;;;;;;;;;5076871;28;20402;-63
2021/05/31 01:42:27;;;;;;;32.17;14.05;;;;;;;;;;5095191;28;20095;-64
2021/05/31 01:44:52;;;;;;;31.42;14.13;;;;;;;;;;5095168;28;20074;-64
2021/05/31 01:47:18;;;;;;;31.25;13.10;;;;;;;;;;5095254;28;20077;-64
2021/05/31 01:49:44;;;;;;;31.10;13.25;;;;;;;;;;5095454;28;20023;-64
2021/05/31 01:52:10;;;;;;;25.00;12.27;;;;;;;;;;5095032;28;20050;-64
2021/05/31 01:54:36;;;;;;;35.30;14.50;;;;;;;;;;5094196;28;20019;-64
2021/05/31 01:57:01;;;;;;;33.88;12.57;;;;;;;;;;5095136;28;20024;-64
2021/05/31 01:59:27;;;;;;;33.47;14.15;;;;;;;;;;5094260;28;20558;-64
2021/05/31 02:01:53;;;;;;;30.95;12.85;;;;;;;;;;5094375;28;20024;-64
2021/05/31 02:04:18;;;;;;;30.40;13.30;;;;;;;;;;5076654;28;20032;-64
2021/05/31 02:06:43;;;;;;;28.15;12.35;;;;;;;;;;5094584;28;20483;-64
2021/05/31 02:09:09;;;;;;;33.40;13.52;;;;;;;;;;5098673;28;20365;-64
2021/05/31 02:11:35;;;;;;;35.83;13.38;;;;;;;;;;5114838;28;20043;-64
2021/05/31 02:14:02;;;;;;;42.95;14.90;;;;;;;;;;5115043;28;20471;-64
2021/05/31 02:16:40;;;;;;;31.13;12.75;;;;;;;;;;5114877;28;20076;-64
2021/05/31 02:19:06;;;;;;;29.35;12.35;;;;;;;;;;5115089;28;20383;-64
2021/05/31 02:21:34;;;;;;;25.58;12.32;;;;;;;;;;5114851;28;20027;-64
2021/05/31 02:23:59;;;;;;;38.83;13.27;;;;;;;;;;5114654;28;20491;-64
2021/05/31 02:26:25;;;;;;;34.90;14.45;;;;;;;;;;5114665;28;20023;-64
2021/05/31 02:28:50;;;;;;;35.97;13.40;;;;;;;;;;5114523;28;20031;-64
2021/05/31 02:31:16;;;;;;;34.67;13.73;;;;;;;;;;5114533;28;20028;-64
2021/05/31 02:33:43;;;;;;;33.00;12.38;;;;;;;;;;5114683;28;20031;-64
2021/05/31 02:36:09;;;;;;;41.00;13.52;;;;;;;;;;5114565;28;20036;-64
2021/05/31 02:38:34;;;;;;;35.08;14.23;;;;;;;;;;5114718;28;20011;-64
2021/05/31 02:40:59;;;;;;;30.70;12.75;;;;;;;;;;5114295;28;20028;-64
2021/05/31 02:43:25;;;;;;;33.67;13.25;;;;;;;;;;5114593;28;20379;-64
2021/05/31 02:45:50;;;;;;;26.67;11.88;;;;;;;;;;5114321;28;20376;-64
2021/05/31 02:48:16;;;;;;;31.33;13.85;;;;;;;;;;5114362;28;20039;-64
2021/05/31 02:50:41;;;;;;;35.92;14.00;;;;;;;;;;5114196;28;20112;-64
2021/05/31 02:53:07;;;;;;;27.88;13.05;;;;;;;;;;5114329;28;20034;-64
2021/05/31 02:55:33;;;;;;;41.80;13.98;;;;;;;;;;5114154;28;20034;-64
2021/05/31 02:57:59;;;;;;;31.73;12.57;;;;;;;;;;5114254;28;20032;-64
2021/05/31 03:00:25;;;;;;;36.67;14.70;;;;;;;;;;5114414;28;20028;-64
2021/05/31 03:02:51;;;;;;;38.85;13.50;;;;;;;;;;5114192;28;20081;-64
2021/05/31 03:05:21;;;;;;;37.70;13.80;;;;;;;;;;5113942;28;20039;-64
2021/05/31 03:07:46;;;;;;;36.88;13.52;;;;;;;;;;5113962;28;20089;-64
2021/05/31 03:10:13;;;;;;;40.35;13.70;;;;;;;;;;5113863;28;20471;-64
2021/05/31 03:12:38;;;;;;;38.88;14.55;;;;;;;;;;5113551;28;20510;-64
2021/05/31 03:15:05;;;;;;;40.58;14.63;;;;;;;;;;5114129;28;20103;-64
2021/05/31 03:17:30;;;;;;;51.60;16.23;;;;;;;;;;5095659;28;20023;-64
2021/05/31 03:19:56;;;;;;;44.92;15.18;;;;;;;;;;5113595;28;20545;-64
2021/05/31 03:22:21;;;;;;;34.20;14.50;;;;;;;;;;5095575;28;20026;-64
2021/05/31 03:24:47;;;;;;;31.08;14.00;;;;;;;;;;5113904;28;20384;-65
2021/05/31 03:27:12;;;;;;;40.00;14.48;;;;;;;;;;5113677;28;20494;-65
2021/05/31 03:29:37;;;;;;;37.63;14.85;;;;;;;;;;5113745;28;20043;-64
2021/05/31 03:32:03;;;;;;;43.33;16.08;;;;;;;;;;5113535;28;20460;-65
2021/05/31 03:34:28;;;;;;;41.35;15.70;;;;;;;;;;5113694;28;20063;-65
2021/05/31 03:36:53;;;;;;;50.05;16.38;;;;;;;;;;5113451;28;20399;-65
2021/05/31 03:39:19;;;;;;;50.70;15.60;;;;;;;;;;5113722;28;20059;-65
2021/05/31 03:41:44;;;;;;;47.33;15.70;;;;;;;;;;5113138;28;20078;-64
2021/05/31 03:44:09;;;;;;;57.38;17.23;;;;;;;;;;5114059;28;20033;-64
2021/05/31 03:46:35;;;;;;;67.75;18.63;;;;;;;;;;5113485;28;20032;-64
2021/05/31 03:49:01;;;;;;;44.92;16.63;;;;;;;;;;5113570;28;20097;-64
2021/05/31 03:51:26;;;;;;;52.35;18.10;;;;;;;;;;5113097;28;20020;-64
2021/05/31 03:53:51;;;;;;;63.75;18.27;;;;;;;;;;5113466;28;20038;-64
2021/05/31 03:56:17;;;;;;;56.13;17.55;;;;;;;;;;5113359;28;20032;-64
2021/05/31 03:58:44;;;;;;;62.05;19.02;;;;;;;;;;5113529;28;20523;-64
2021/05/31 04:01:11;;;;;;;52.20;17.05;;;;;;;;;;5113296;28;20078;-64
2021/05/31 04:03:36;;;;;;;57.20;18.55;;;;;;;;;;5113306;28;20051;-65
2021/05/31 04:11:49;;;;;;;44.72;16.92;;;;;;;;;;5050142;28;20497;-64
2021/05/31 04:14:16;;;;;;;58.55;18.15;;;;;;;;;;5074902;28;20048;-64
2021/05/31 04:16:43;;;;;;;44.72;15.57;;;;;;;;;;5092670;28;20063;-65
2021/05/31 04:19:09;;;;;;;45.88;16.88;;;;;;;;;;5112324;28;20020;-65
2021/05/31 04:21:35;;;;;;;48.47;16.85;;;;;;;;;;5117155;28;20031;-64
2021/05/31 04:24:01;;;;;;;45.80;16.85;;;;;;;;;;5116865;28;20532;-64
2021/05/31 04:26:27;;;;;;;47.63;16.38;;;;;;;;;;5116809;28;20015;-64
2021/05/31 04:28:52;;;;;;;50.40;17.58;;;;;;;;;;5116707;28;20161;-65
2021/05/31 04:31:18;;;;;;;59.30;16.65;;;;;;;;;;5116818;28;20040;-65
2021/05/31 04:33:43;;;;;;;43.40;15.25;;;;;;;;;;5117032;28;20360;-65
2021/05/31 04:36:09;;;;;;;48.65;16.60;;;;;;;;;;5116663;28;20391;-64
2021/05/31 04:38:34;;;;;;;40.65;16.10;;;;;;;;;;5117283;28;20035;-64
2021/05/31 04:41:00;;;;;;;53.88;16.30;;;;;;;;;;5116802;28;20077;-64
2021/05/31 04:43:25;;;;;;;46.85;15.70;;;;;;;;;;5116863;28;20081;-65
2021/05/31 04:45:50;;;;;;;45.15;16.35;;;;;;;;;;5116450;28;20433;-65
2021/05/31 04:48:16;;;;;;;60.17;16.02;;;;;;;;;;5116768;28;20098;-65
2021/05/31 04:50:41;;;;;;;52.08;14.73;;;;;;;;;;5116581;28;20066;-65
2021/05/31 04:53:06;;;;;;;79.82;15.48;;;;;;;;;;5116541;28;20035;-64
2021/05/31 04:55:33;;;;;;;61.00;13.75;;;;;;;;;;5116884;28;20024;-64
2021/05/31 04:57:58;;;;;;;31.20;10.68;;;;;;;;;;5116526;28;20106;-65
2021/05/31 05:00:24;;;;;;;45.78;10.32;;;;;;;;;;5116685;28;20118;-65
2021/05/31 05:02:49;;;;;;;79.72;14.77;;;;;;;;;;5116249;28;20026;-65
2021/05/31 05:05:14;;;;;;;101.93;14.20;;;;;;;;;;5116632;28;20032;-65
2021/05/31 05:07:45;;;;;;;66.95;12.23;;;;;;;;;;5116316;28;20043;-65
2021/05/31 05:10:15;;;;;;;260.75;27.73;;;;;;;;;;5115776;28;20073;-64
2021/05/31 05:12:41;;;;;;;24.13;8.77;;;;;;;;;;5116113;28;20044;-65
2021/05/31 05:15:07;;;;;;;293.90;28.52;;;;;;;;;;5115846;28;20515;-62
2021/05/31 05:17:32;;;;;;;67.22;12.73;;;;;;;;;;5116185;28;20016;-62
2021/05/31 05:19:57;;;;;;;24.25;8.32;;;;;;;;;;5116169;28;20060;-62
2021/05/31 05:22:23;;;;;;;20.50;6.82;;;;;;;;;;5116003;28;20035;-63
2021/05/31 05:24:48;;;;;;;41.75;11.18;;;;;;;;;;5116131;28;20103;-63
2021/05/31 05:27:15;;;;;;;14.48;6.75;;;;;;;;;;5115970;28;20024;-63
2021/05/31 05:29:40;;;;;;;7.97;5.93;;;;;;;;;;5114590;28;20497;-63
2021/05/31 05:32:06;;;;;;;7.28;5.90;;;;;;;;;;5115753;28;20035;-63
2021/05/31 05:34:31;;;;;;;9.50;5.75;;;;;;;;;;5115992;28;20063;-63
2021/05/31 05:37:03;;;;;;;12.23;5.38;;;;;;;;;;5115766;28;20476;-63
2021/05/31 05:42:43;;;;;;;7.93;4.28;;;;;;;;;;5115600;28;20118;-63
2021/05/31 05:50:08;;;;;;;7.10;4.60;;;;;;;;;;5115614;28;20063;-63
2021/05/31 05:52:34;;;;;;;5.70;4.00;;;;;;;;;;5114920;28;20043;-63
2021/05/31 05:54:59;;;;;;;8.82;4.40;;;;;;;;;;5115539;28;20043;-63
2021/05/31 05:57:24;;;;;;;5.53;4.47;;;;;;;;;;5115321;28;20119;-63
2021/05/31 05:59:50;;;;;;;6.22;4.28;;;;;;;;;;5115414;28;20464;-63
2021/05/31 06:02:15;;;;;;;6.72;4.07;;;;;;;;;;5115555;28;20019;-63
2021/05/31 06:04:41;;;;;;;6.93;4.70;;;;;;;;;;5115232;28;20039;-63
2021/05/31 06:07:06;;;;;;;5.65;3.92;;;;;;;;;;5115092;28;20028;-64
2021/05/31 06:09:32;;;;;;;4.65;3.65;;;;;;;;;;5107215;28;20109;-63
2021/05/31 06:11:57;;;;;;;8.25;4.35;;;;;;;;;;5094850;28;20075;-63
2021/05/31 06:14:22;;;;;;;12.10;3.97;;;;;;;;;;5094715;28;20273;-64
2021/05/31 06:16:48;;;;;;;11.18;5.55;;;;;;;;;;5094447;28;20088;-64
2021/05/31 06:19:13;;;;;;;6.57;4.65;;;;;;;;;;5094906;28;20120;-64
2021/05/31 06:21:39;;;;;;;11.55;7.38;;;;;;;;;;5094421;28;20114;-64
2021/05/31 06:24:05;;;;;;;14.80;7.75;;;;;;;;;;5094242;28;20043;-64
2021/05/31 06:26:30;;;;;;;14.35;9.85;;;;;;;;;;5094037;28;20555;-64
2021/05/31 06:28:55;;;;;;;19.13;12.25;;;;;;;;;;5094314;28;20115;-64
2021/05/31 06:31:21;;;;;;;17.80;11.60;;;;;;;;;;5094306;28;20024;-64
2021/05/31 06:33:46;;;;;;;15.20;10.65;;;;;;;;;;5094188;28;20040;-64
2021/05/31 06:36:12;;;;;;;14.70;10.32;;;;;;;;;;5094277;28;20028;-64
2021/05/31 06:38:37;;;;;;;16.80;11.43;;;;;;;;;;5076122;28;20441;-64
2021/05/31 06:41:03;;;;;;;19.35;12.27;;;;;;;;;;5093681;28;20473;-64
2021/05/31 06:43:29;;;;;;;16.73;11.93;;;;;;;;;;5093789;28;20373;-64
2021/05/31 06:45:55;;;;;;;18.20;13.30;;;;;;;;;;5093920;28;20081;-64
2021/05/31 06:48:21;;;;;;;18.13;10.55;;;;;;;;;;5093756;28;20392;-64
2021/05/31 06:50:46;;;;;;;16.05;12.05;;;;;;;;;;5093948;28;20028;-64
2021/05/31 06:53:11;;;;;;;21.38;13.48;;;;;;;;;;5093892;28;20039;-63
2021/05/31 06:55:36;;;;;;;17.90;13.02;;;;;;;;;;5093836;28;20031;-64
2021/05/31 06:58:02;;;;;;;18.25;12.60;;;;;;;;;;5093838;28;20440;-63
2021/05/31 07:00:28;;;;;;;18.00;12.68;;;;;;;;;;5093751;28;20476;-64
2021/05/31 07:02:54;;;;;;;19.50;13.02;;;;;;;;;;5093772;28;20043;-65
2021/05/31 07:05:19;;;;;;;15.85;12.25;;;;;;;;;;5093513;28;20597;-64
2021/05/31 07:07:45;;;;;;;19.30;12.55;;;;;;;;;;5093236;28;20017;-64
2021/05/31 07:10:12;;;;;;;19.08;12.25;;;;;;;;;;5106646;28;20100;-64
2021/05/31 07:12:37;;;;;;;15.00;11.40;;;;;;;;;;5113781;28;20082;-64
2021/05/31 07:15:04;;;;;;;17.35;12.00;;;;;;;;;;5113712;28;20047;-64
2021/05/31 07:17:32;;;;;;;17.02;12.27;;;;;;;;;;5113820;28;20028;-64
2021/05/31 07:19:57;;;;;;;16.70;12.18;;;;;;;;;;5113630;28;20487;-64
2021/05/31 07:22:23;;;;;;;18.88;12.25;;;;;;;;;;5113695;28;20020;-64
2021/05/31 07:24:48;;;;;;;17.95;11.77;;;;;;;;;;5113738;28;20043;-65
2021/05/31 07:27:14;;;;;;;20.17;13.35;;;;;;;;;;5113471;28;20433;-64
2021/05/31 07:29:39;;;;;;;16.48;12.98;;;;;;;;;;5113699;28;20020;-64
2021/05/31 07:32:05;;;;;;;18.40;13.45;;;;;;;;;;5113534;28;20036;-64
2021/05/31 07:34:30;;;;;;;19.38;14.00;;;;;;;;;;5113759;28;20509;-65
2021/05/31 07:36:56;;;;;;;18.95;14.18;;;;;;;;;;5113451;28;20016;-64
2021/05/31 07:39:21;;;;;;;18.90;13.25;;;;;;;;;;5113753;28;20089;-64
2021/05/31 07:41:46;;;;;;;18.20;14.27;;;;;;;;;;5113041;28;20399;-64
2021/05/31 07:44:12;;;;;;;19.35;14.73;;;;;;;;;;5113648;28;20019;-64
2021/05/31 07:46:37;;;;;;;19.60;13.95;;;;;;;;;;5113257;28;20036;-64
2021/05/31 07:49:02;;;;;;;18.27;13.38;;;;;;;;;;5113862;28;20028;-64
2021/05/31 07:51:28;;;;;;;17.13;14.73;;;;;;;;;;5113387;28;20023;-64
2021/05/31 07:53:55;;;;;;;19.33;15.32;;;;;;;;;;5115686;28;20039;-64
2021/05/31 07:56:22;;;;;;;16.75;14.88;;;;;;;;;;5117969;28;20032;-64
2021/05/31 07:58:47;;;;;;;18.77;15.93;;;;;;;;;;5117741;28;20031;-64
2021/05/31 08:01:12;;;;;;;18.58;15.93;;;;;;;;;;5117304;28;20031;-64
2021/05/31 08:03:38;;;;;;;20.65;16.98;;;;;;;;;;5117276;28;20110;-64
2021/05/31 08:06:04;;;;;;;18.42;15.50;;;;;;;;;;5117384;28;20072;-65
2021/05/31 08:08:29;;;;;;;19.73;16.20;;;;;;;;;;5117517;28;20035;-64
2021/05/31 08:10:55;;;;;;;18.83;16.83;;;;;;;;;;5098165;28;20362;-64
2021/05/31 08:13:20;;;;;;;18.98;16.08;;;;;;;;;;5097116;28;20024;-64
2021/05/31 08:15:46;;;;;;;17.17;15.00;;;;;;;;;;5095939;28;20036;-64
2021/05/31 08:18:11;;;;;;;19.95;15.27;;;;;;;;;;5096711;28;20077;-64
2021/05/31 08:20:40;;;;;;;19.88;15.50;;;;;;;;;;5096596;28;20019;-64
2021/05/31 08:23:06;;;;;;;20.00;16.60;;;;;;;;;;5096707;28;20040;-64
2021/05/31 08:25:31;;;;;;;20.00;15.95;;;;;;;;;;5096912;28;20117;-64
2021/05/31 08:27:57;;;;;;;18.27;16.27;;;;;;;;;;5096610;28;20467;-64
2021/05/31 08:30:22;;;;;;;20.02;16.27;;;;;;;;;;5096824;28;20066;-65
2021/05/31 08:32:47;;;;;;;22.13;16.33;;;;;;;;;;5096044;28;20032;-65
2021/05/31 08:35:13;;;;;;;16.45;14.75;;;;;;;;;;5094469;28;20530;-64
2021/05/31 08:37:38;;;;;;;21.45;15.60;;;;;;;;;;5095284;28;20077;-64
2021/05/31 08:40:05;;;;;;;19.10;14.63;;;;;;;;;;5095677;28;20027;-65
2021/05/31 08:42:32;;;;;;;18.02;15.95;;;;;;;;;;5096400;28;20057;-64
2021/05/31 08:44:58;;;;;;;22.10;16.65;;;;;;;;;;5095945;28;20525;-64
2021/05/31 08:47:24;;;;;;;17.77;15.43;;;;;;;;;;5096182;28;20115;-65
2021/05/31 08:49:52;;;;;;;18.83;16.90;;;;;;;;;;5096055;28;20024;-64
2021/05/31 08:52:18;;;;;;;21.70;16.83;;;;;;;;;;5096249;28;20032;-65
2021/05/31 08:54:43;;;;;;;22.60;16.65;;;;;;;;;;5095941;28;20024;-65
2021/05/31 08:57:08;;;;;;;22.90;17.30;;;;;;;;;;5096440;28;20059;-65
2021/05/31 08:59:33;;;;;;;18.27;15.32;;;;;;;;;;5095861;28;20032;-65
2021/05/31 09:01:59;;;;;;;20.70;15.70;;;;;;;;;;5096188;28;20054;-64
2021/05/31 09:04:24;;;;;;;23.77;16.63;;;;;;;;;;5095814;28;20065;-64
2021/05/31 09:06:54;;;;;;;16.67;13.82;;;;;;;;;;5104536;28;20063;-64
2021/05/31 09:09:19;;;;;;;18.92;15.73;;;;;;;;;;5115719;28;20027;-64
2021/05/31 09:11:55;;;;;;;23.10;16.88;;;;;;;;;;5116177;28;20101;-64
2021/05/31 09:14:21;;;;;;;19.33;14.77;;;;;;;;;;5116388;28;20031;-64
2021/05/31 09:16:47;;;;;;;19.40;15.15;;;;;;;;;;5112177;28;20455;-63
2021/05/31 09:19:12;;;;;;;19.88;15.80;;;;;;;;;;5089351;28;20952;-64
2021/05/31 09:21:43;;;;;;;18.95;15.38;;;;;;;;;;5089484;28;20082;-64
2021/05/31 09:24:08;;;;;;;17.88;15.07;;;;;;;;;;5091559;28;20024;-64
2021/05/31 09:26:53;;;;;;;21.52;15.90;;;;;;;;;;5091558;28;20127;-65
2021/05/31 09:29:19;;;;;;;24.75;15.52;;;;;;;;;;5091831;28;20459;-65
2021/05/31 09:31:44;;;;;;;18.85;15.38;;;;;;;;;;5093870;28;20499;-64
2021/05/31 09:34:11;;;;;;;18.95;14.68;;;;;;;;;;5105107;28;20027;-64
2021/05/31 09:36:50;;;;;;;19.33;15.05;;;;;;;;;;5112458;27;20038;-64
2021/05/31 09:39:16;;;;;;;18.27;14.68;;;;;;;;;;5112547;28;20520;-64
2021/05/31 09:41:41;;;;;;;20.13;14.75;;;;;;;;;;5112116;28;20122;-64
2021/05/31 09:44:08;;;;;;;18.33;14.23;;;;;;;;;;5112658;27;20448;-64
2021/05/31 09:46:37;;;;;;;19.05;13.15;;;;;;;;;;5112872;28;20444;-65
2021/05/31 09:49:09;;;;;;;16.52;12.90;;;;;;;;;;5112886;28;20051;-65
2021/05/31 09:51:34;;;;;;;16.90;12.20;;;;;;;;;;5114232;28;20384;-65
2021/05/31 09:53:59;;;;;;;17.13;13.77;;;;;;;;;;5115142;28;20019;-64
2021/05/31 09:56:25;;;;;;;19.77;14.18;;;;;;;;;;5109576;28;20114;-65
2021/05/31 09:58:55;;;;;;;17.27;12.70;;;;;;;;;;5115374;28;20464;-65
2021/05/31 10:01:33;;;;;;;15.90;12.40;;;;;;;;;;5115002;28;20028;-64
2021/05/31 10:04:15;;;;;;;17.40;13.20;;;;;;;;;;5115595;28;20031;-65
2021/05/31 10:06:54;;;;;;;17.95;12.90;;;;;;;;;;5113931;28;20070;-64
2021/05/31 10:09:20;;;;;;;16.35;11.23;;;;;;;;;;5112989;28;20043;-65
2021/05/31 10:11:46;;;;;;;16.85;11.32;;;;;;;;;;5093646;28;20036;-64
2021/05/31 10:14:13;;;;;;;13.65;11.02;;;;;;;;;;5097871;28;20028;-64
2021/05/31 10:16:39;;;;;;;17.33;10.93;;;;;;;;;;5109484;28;20015;-64
2021/05/31 10:19:04;;;;;;;12.85;9.18;;;;;;;;;;5104825;28;20061;-64
2021/05/31 10:21:30;;;;;;;13.95;9.93;;;;;;;;;;5110983;28;20043;-64
2021/05/31 10:23:56;;;;;;;13.52;10.35;;;;;;;;;;5096125;28;20118;-64
2021/05/31 10:26:22;;;;;;;12.15;10.75;;;;;;;;;;5104048;28;20036;-65
2021/05/31 10:28:48;;;;;;;14.90;9.85;;;;;;;;;;5110562;28;20096;-64
2021/05/31 10:31:13;;;;;;;12.88;9.43;;;;;;;;;;5105524;28;20834;-64
2021/05/31 10:33:40;;;;;;;12.50;9.77;;;;;;;;;;5110280;28;20400;-64
2021/05/31 10:36:18;;;;;;;13.32;10.20;;;;;;;;;;5094903;28;20036;-64
2021/05/31 10:38:48;;;;;;;14.18;10.80;;;;;;;;;;5106519;28;20026;-64
2021/05/31 10:41:15;;;;;;;16.00;11.00;;;;;;;;;;5109770;28;20087;-63
2021/05/31 10:43:45;;;;;;;13.73;10.35;;;;;;;;;;5102452;28;20028;-63
2021/05/31 10:46:15;;;;;;;16.92;11.30;;;;;;;;;;5107529;28;20036;-63
2021/05/31 10:48:44;;;;;;;16.90;11.07;;;;;;;;;;5097907;28;20108;-63
2021/05/31 10:51:13;;;;;;;15.50;11.68;;;;;;;;;;5096839;28;20024;-63
2021/05/31 10:53:39;;;;;;;15.55;11.05;;;;;;;;;;5101341;28;20059;-65
2021/05/31 10:56:06;;;;;;;20.02;11.55;;;;;;;;;;5109276;28;20104;-65
2021/05/31 10:58:35;;;;;;;17.00;12.50;;;;;;;;;;5099645;28;20028;-65
2021/05/31 11:01:02;;;;;;;17.55;10.55;;;;;;;;;;5096494;28;20028;-65
2021/05/31 11:03:28;;;;;;;18.23;11.00;;;;;;;;;;5099748;28;20050;-65
2021/05/31 11:05:54;;;;;;;16.98;12.50;;;;;;;;;;5095560;28;20023;-65
2021/05/31 11:08:31;;;;;;;15.38;10.85;;;;;;;;;;5087514;28;20385;-65
2021/05/31 11:11:01;;;;;;;16.48;11.35;;;;;;;;;;5109028;28;20058;-65
2021/05/31 11:13:27;;;;;;;19.30;12.98;;;;;;;;;;5103174;28;20483;-65
2021/05/31 11:15:59;;;;;;;21.23;12.50;;;;;;;;;;5098077;28;20031;-65
2021/05/31 11:18:32;;;;;;;18.23;12.95;;;;;;;;;;5093611;28;20403;-65
2021/05/31 11:20:58;;;;;;;23.00;12.50;;;;;;;;;;5109294;28;20057;-65
2021/05/31 11:23:23;;;;;;;17.83;12.32;;;;;;;;;;5095670;28;20096;-64
2021/05/31 11:25:48;;;;;;;18.50;12.55;;;;;;;;;;5088523;28;20024;-65
2021/05/31 11:28:13;;;;;;;16.95;11.85;;;;;;;;;;5089293;28;20181;-65
2021/05/31 11:30:39;;;;;;;21.35;13.52;;;;;;;;;;5107193;28;20027;-65
2021/05/31 11:33:04;;;;;;;17.17;11.75;;;;;;;;;;5108672;28;20478;-64
2021/05/31 11:35:31;;;;;;;17.70;12.15;;;;;;;;;;5095514;28;20027;-65
2021/05/31 11:37:57;;;;;;;14.82;10.32;;;;;;;;;;5108429;28;20035;-65
2021/05/31 11:40:33;;;;;;;17.73;11.98;;;;;;;;;;5094460;28;20030;-64
2021/05/31 11:43:01;;;;;;;19.10;12.10;;;;;;;;;;5095927;28;20046;-65
2021/05/31 11:45:27;;;;;;;19.63;11.65;;;;;;;;;;5106224;28;20085;-65
2021/05/31 11:47:57;;;;;;;16.90;13.05;;;;;;;;;;5107396;28;20032;-65
2021/05/31 11:50:23;;;;;;;16.98;12.52;;;;;;;;;;5105866;28;20036;-65
2021/05/31 11:52:48;;;;;;;17.20;12.32;;;;;;;;;;5093549;28;20460;-65
2021/05/31 11:55:32;;;;;;;22.75;13.77;;;;;;;;;;5099011;28;20077;-64
2021/05/31 11:57:57;;;;;;;18.83;12.32;;;;;;;;;;5109789;28;20081;-65
2021/05/31 12:00:30;;;;;;;18.77;12.55;;;;;;;;;;5112947;28;20035;-65
2021/05/31 12:02:55;;;;;;;15.55;11.43;;;;;;;;;;5110962;28;20023;-64
2021/05/31 12:05:34;;;;;;;24.20;13.35;;;;;;;;;;5111846;28;20023;-65
2021/05/31 12:08:02;;;;;;;18.27;11.20;;;;;;;;;;5112329;28;20054;-65
2021/05/31 12:10:27;;;;;;;17.52;11.23;;;;;;;;;;5111732;28;20055;-65
2021/05/31 12:12:53;;;;;;;22.77;12.38;;;;;;;;;;5112892;28;20031;-65
2021/05/31 12:15:18;;;;;;;15.07;11.77;;;;;;;;;;5112325;28;20023;-65
2021/05/31 12:17:44;;;;;;;17.02;11.35;;;;;;;;;;5112429;28;20054;-64
2021/05/31 12:20:10;;;;;;;18.38;12.10;;;;;;;;;;5108209;28;20804;-65
2021/05/31 12:22:38;;;;;;;14.00;10.48;;;;;;;;;;5092043;28;20028;-65
2021/05/31 12:25:06;;;;;;;17.00;11.07;;;;;;;;;;5091717;28;20032;-65
2021/05/31 12:27:33;;;;;;;17.10;11.50;;;;;;;;;;5092025;28;20043;-65
2021/05/31 12:29:59;;;;;;;17.92;11.55;;;;;;;;;;5091939;28;20644;-65
2021/05/31 12:32:25;;;;;;;18.23;12.30;;;;;;;;;;5092318;28;20425;-65
2021/05/31 12:34:51;;;;;;;18.95;11.85;;;;;;;;;;5092218;28;20033;-65
2021/05/31 12:37:18;;;;;;;19.08;11.65;;;;;;;;;;5092972;28;20031;-65
2021/05/31 12:39:47;;;;;;;18.10;11.88;;;;;;;;;;5112898;28;20039;-65
2021/05/31 12:42:14;;;;;;;16.95;11.57;;;;;;;;;;5111448;28;20078;-64
2021/05/31 12:44:40;;;;;;;14.35;11.43;;;;;;;;;;5094060;28;20722;-65
2021/05/31 12:47:09;;;;;;;18.75;13.05;;;;;;;;;;5112332;28;20085;-65
2021/05/31 12:49:40;;;;;;;20.70;12.90;;;;;;;;;;5101380;28;20035;-65
2021/05/31 12:52:06;;;;;;;16.90;11.23;;;;;;;;;;5099444;28;20647;-65
2021/05/31 12:54:31;;;;;;;20.42;11.38;;;;;;;;;;5107908;28;20038;-65
2021/05/31 12:57:09;;;;;;;15.15;11.05;;;;;;;;;;5113279;28;20043;-65
2021/05/31 12:59:38;;;;;;;17.80;11.48;;;;;;;;;;5102350;28;20786;-65
2021/05/31 13:02:11;;;;;;;21.00;12.95;;;;;;;;;;5106637;28;20055;-65
2021/05/31 13:04:36;;;;;;;15.35;10.60;;;;;;;;;;5103791;28;20058;-65
2021/05/31 13:07:02;;;;;;;14.98;10.55;;;;;;;;;;5092311;28;20055;-65
2021/05/31 13:09:27;;;;;;;17.13;10.30;;;;;;;;;;5111334;28;20054;-65
2021/05/31 13:11:53;;;;;;;18.92;12.32;;;;;;;;;;5105575;28;20134;-65
2021/05/31 13:14:22;;;;;;;17.10;11.30;;;;;;;;;;5101311;28;20031;-65
2021/05/31 13:16:52;;;;;;;14.68;10.32;;;;;;;;;;5101965;28;20023;-65
2021/05/31 13:19:18;;;;;;;16.50;9.52;;;;;;;;;;5114772;28;20019;-65
2021/05/31 13:21:44;;;;;;;16.80;11.20;;;;;;;;;;5115013;28;20054;-65
2021/05/31 13:24:09;;;;;;;16.70;11.50;;;;;;;;;;5114902;28;20043;-65
2021/05/31 13:26:36;;;;;;;16.23;10.82;;;;;;;;;;5114784;28;20384;-65
2021/05/31 13:29:01;;;;;;;18.88;11.07;;;;;;;;;;5114627;28;20032;-65
2021/05/31 13:31:27;;;;;;;16.95;11.50;;;;;;;;;;5114834;28;20030;-65
2021/05/31 13:33:53;;;;;;;18.65;11.48;;;;;;;;;;5115140;28;20035;-65
2021/05/31 13:36:27;;;;;;;18.55;11.27;;;;;;;;;;5114919;28;20031;-65
2021/05/31 13:39:04;;;;;;;16.33;10.57;;;;;;;;;;5115237;28;20030;-65
2021/05/31 13:41:37;;;;;;;14.35;9.63;;;;;;;;;;5114808;28;20107;-65
2021/05/31 13:44:10;;;;;;;11.75;8.32;;;;;;;;;;5114866;28;20525;-65
2021/05/31 13:46:36;;;;;;;15.85;8.85;;;;;;;;;;5114448;28;20040;-65
2021/05/31 13:49:02;;;;;;;14.88;8.73;;;;;;;;;;5114889;28;20035;-65
2021/05/31 13:51:27;;;;;;;14.18;8.93;;;;;;;;;;5112736;28;20496;-65
2021/05/31 13:53:53;;;;;;;12.40;8.50;;;;;;;;;;5113571;28;20108;-65
2021/05/31 13:56:18;;;;;;;12.57;8.57;;;;;;;;;;5114092;28;20028;-65
2021/05/31 13:58:44;;;;;;;11.93;7.55;;;;;;;;;;5112962;28;20094;-64
2021/05/31 14:01:09;;;;;;;13.35;9.57;;;;;;;;;;5099913;28;20465;-65
2021/05/31 14:03:35;;;;;;;13.88;6.90;;;;;;;;;;5110925;28;20046;-65
2021/05/31 14:06:00;;;;;;;11.65;8.10;;;;;;;;;;5105954;28;20047;-65
2021/05/31 14:08:25;;;;;;;13.57;9.13;;;;;;;;;;5097857;28;20031;-65
2021/05/31 14:10:50;;;;;;;19.25;10.98;;;;;;;;;;5111173;28;20063;-65
2021/05/31 14:13:16;;;;;;;12.25;8.50;;;;;;;;;;5100266;28;20042;-66
2021/05/31 14:15:42;;;;;;;13.27;9.27;;;;;;;;;;5087344;28;20058;-65
2021/05/31 14:18:09;;;;;;;12.88;8.90;;;;;;;;;;5090783;28;20024;-65
2021/05/31 14:20:34;;;;;;;16.65;9.40;;;;;;;;;;5097572;28;20059;-65
2021/05/31 14:23:03;;;;;;;12.27;9.05;;;;;;;;;;5110630;28;20088;-65
2021/05/31 14:25:28;;;;;;;14.45;8.40;;;;;;;;;;5094643;28;20453;-65
2021/05/31 14:27:54;;;;;;;12.18;7.05;;;;;;;;;;5106106;28;20039;-65
2021/05/31 14:30:20;;;;;;;15.10;9.25;;;;;;;;;;5095723;28;20067;-65